createdAt,value
2022-09-15T00:01:08.736Z,98.79
2022-09-15T00:03:42.569Z,98.94
2022-09-15T00:06:10.233Z,99.29
2022-09-15T00:08:37.685Z,99.68
2022-09-15T00:11:14.435Z,99.93
2022-09-15T00:13:41.633Z,100.00
2022-09-15T00:16:13.600Z,100.00
2022-09-15T00:18:44.231Z,99.97
2022-09-15T00:21:17.309Z,100.00
2022-09-15T00:23:44.517Z,100.00
2022-09-15T00:26:14.218Z,100.00
2022-09-15T00:28:41.382Z,100.00
2022-09-15T00:31:11.605Z,100.00
2022-09-15T00:33:38.710Z,100.00
2022-09-15T00:36:09.464Z,100.00
2022-09-15T00:38:37.554Z,100.00
2022-09-15T00:41:06.354Z,100.00
2022-09-15T00:43:45.210Z,100.00
2022-09-15T00:46:13.450Z,100.00
2022-09-15T00:48:48.414Z,100.00
2022-09-15T00:51:20.164Z,100.00
2022-09-15T00:53:49.045Z,100.00
2022-09-15T00:56:19.234Z,100.00
2022-09-15T00:58:55.895Z,100.00
2022-09-15T01:01:26.325Z,100.00
2022-09-15T01:03:54.666Z,100.00
2022-09-15T01:06:37.129Z,100.00
2022-09-15T01:09:12.586Z,100.00
2022-09-15T01:11:41.520Z,100.00
2022-09-15T01:14:08.632Z,100.00
2022-09-15T01:16:37.912Z,100.00
2022-09-15T01:19:42.368Z,99.99
2022-09-15T01:22:22.126Z,100.00
2022-09-15T01:25:00.894Z,100.00
2022-09-15T01:28:05.457Z,100.00
2022-09-15T01:30:37.482Z,100.00
2022-09-15T01:33:36.951Z,100.00
2022-09-15T01:36:12.585Z,100.00
2022-09-15T01:39:10.095Z,100.00
2022-09-15T01:41:51.297Z,100.00
2022-09-15T01:44:27.438Z,100.00
2022-09-15T01:46:58.097Z,100.00
2022-09-15T01:49:28.728Z,100.00
2022-09-15T01:51:55.604Z,100.00
2022-09-15T01:54:29.457Z,100.00
2022-09-15T01:56:56.675Z,100.00
2022-09-15T01:59:23.604Z,100.00
2022-09-15T02:02:06.789Z,100.00
2022-09-15T02:04:40.056Z,100.00
2022-09-15T02:07:12.374Z,100.00
2022-09-15T02:10:11.441Z,100.00
2022-09-15T02:12:47.781Z,100.00
2022-09-15T02:15:24.498Z,100.00
2022-09-15T02:17:55.487Z,100.00
2022-09-15T02:20:41.093Z,100.00
2022-09-15T02:23:16.844Z,100.00
2022-09-15T02:25:48.458Z,100.00
2022-09-15T02:28:18.934Z,100.00
2022-09-15T02:30:48.596Z,100.00
2022-09-15T02:33:20.282Z,100.00
2022-09-15T02:35:47.306Z,100.00
2022-09-15T02:38:14.715Z,100.00
2022-09-15T02:40:44.238Z,100.00
2022-09-15T02:43:14.561Z,100.00
2022-09-15T02:45:41.442Z,100.00
2022-09-15T02:48:09.244Z,100.00
2022-09-15T02:50:37.760Z,100.00
2022-09-15T02:53:04.900Z,100.00
2022-09-15T02:55:31.865Z,100.00
2022-09-15T02:57:58.953Z,100.00
2022-09-15T03:00:27.813Z,100.00
2022-09-15T03:02:55.404Z,100.00
2022-09-15T03:05:25.702Z,100.00
2022-09-15T03:07:52.964Z,100.00
2022-09-15T03:10:20.464Z,100.00
2022-09-15T03:12:49.958Z,100.00
2022-09-15T03:15:21.052Z,100.00
2022-09-15T03:17:48.307Z,100.00
2022-09-15T03:20:19.774Z,100.00
2022-09-15T03:22:47.337Z,100.00
2022-09-15T03:25:13.986Z,100.00
2022-09-15T03:27:41.958Z,100.00
2022-09-15T03:30:10.294Z,100.00
2022-09-15T03:32:37.647Z,100.00
2022-09-15T03:35:06.259Z,100.00
2022-09-15T03:37:34.110Z,100.00
2022-09-15T03:40:00.827Z,100.00
2022-09-15T03:42:27.570Z,100.00
2022-09-15T03:44:54.299Z,100.00
2022-09-15T03:47:21.233Z,100.00
2022-09-15T03:49:47.894Z,100.00
2022-09-15T03:52:14.734Z,100.00
2022-09-15T03:54:41.613Z,100.00
2022-09-15T03:57:08.180Z,100.00
2022-09-15T03:59:34.756Z,100.00
2022-09-15T04:02:01.512Z,100.00
2022-09-15T04:04:28.454Z,100.00
2022-09-15T04:06:55.005Z,100.00
2022-09-15T04:09:21.693Z,100.00
2022-09-15T04:11:48.489Z,100.00
2022-09-15T04:14:15.085Z,100.00
2022-09-15T04:16:41.814Z,100.00
2022-09-15T04:19:08.479Z,100.00
2022-09-15T04:21:35.457Z,100.00
2022-09-15T04:24:04.480Z,100.00
2022-09-15T04:26:34.766Z,100.00
2022-09-15T04:29:04.666Z,100.00
2022-09-15T04:31:33.433Z,100.00
2022-09-15T04:34:00.930Z,100.00
2022-09-15T04:36:29.189Z,100.00
2022-09-15T04:38:57.757Z,100.00
2022-09-15T04:41:26.109Z,100.00
2022-09-15T04:43:54.081Z,100.00
2022-09-15T04:46:21.444Z,100.00
2022-09-15T04:48:48.495Z,100.00
2022-09-15T04:51:18.760Z,100.00
2022-09-15T04:53:46.434Z,100.00
2022-09-15T04:56:16.618Z,100.00
2022-09-15T04:58:46.454Z,100.00
2022-09-15T05:01:21.961Z,100.00
2022-09-15T05:03:49.673Z,100.00
2022-09-15T05:06:20.523Z,100.00
2022-09-15T05:08:53.316Z,100.00
2022-09-15T05:11:20.818Z,100.00
2022-09-15T05:13:48.022Z,100.00
2022-09-15T05:16:17.826Z,100.00
2022-09-15T05:18:46.210Z,100.00
2022-09-15T05:21:15.449Z,100.00
2022-09-15T05:23:43.113Z,100.00
2022-09-15T05:26:15.693Z,100.00
2022-09-15T05:28:42.969Z,100.00
2022-09-15T05:31:17.576Z,100.00
2022-09-15T05:33:45.986Z,100.00
2022-09-15T05:36:14.646Z,100.00
2022-09-15T05:38:41.976Z,100.00
2022-09-15T05:41:12.174Z,100.00
2022-09-15T05:43:39.685Z,100.00
2022-09-15T05:46:07.357Z,100.00
2022-09-15T05:48:34.819Z,100.00
2022-09-15T05:51:02.635Z,100.00
2022-09-15T05:53:30.472Z,100.00
2022-09-15T05:55:59.075Z,100.00
2022-09-15T05:58:26.284Z,98.33
2022-09-15T06:00:53.984Z,93.90
2022-09-15T06:03:25.305Z,90.58
2022-09-15T06:06:06.313Z,91.06
2022-09-15T06:08:35.825Z,91.05
2022-09-15T06:11:08.026Z,91.38
2022-09-15T06:13:34.883Z,91.52
2022-09-15T06:16:06.255Z,91.57
2022-09-15T06:18:35.442Z,90.72
2022-09-15T06:21:04.828Z,87.85
2022-09-15T06:23:32.017Z,85.27
2022-09-15T06:26:09.183Z,83.75
2022-09-15T06:28:36.030Z,83.95
2022-09-15T06:31:03.264Z,84.58
2022-09-15T06:33:30.100Z,83.89
2022-09-15T06:36:02.085Z,83.24
2022-09-15T06:38:29.502Z,82.61
2022-09-15T06:40:57.919Z,81.84
2022-09-15T06:43:25.207Z,80.79
2022-09-15T06:45:52.137Z,80.47
2022-09-15T06:48:24.960Z,80.59
2022-09-15T06:50:54.697Z,80.42
2022-09-15T06:53:21.824Z,79.53
2022-09-15T06:55:48.903Z,78.78
2022-09-15T06:58:16.124Z,78.24
2022-09-15T07:00:42.970Z,77.50
2022-09-15T07:03:10.039Z,77.61
2022-09-15T07:05:37.425Z,76.59
2022-09-15T07:08:04.286Z,76.43
2022-09-15T07:10:31.556Z,75.65
2022-09-15T07:13:00.734Z,75.54
2022-09-15T07:15:27.871Z,74.96
2022-09-15T07:17:54.769Z,73.95
2022-09-15T07:20:22.394Z,70.79
2022-09-15T07:22:49.464Z,69.72
2022-09-15T07:25:16.532Z,69.04
2022-09-15T07:27:43.934Z,67.47
2022-09-15T07:30:11.610Z,66.73
2022-09-15T07:32:38.329Z,65.79
2022-09-15T07:35:05.633Z,64.92
2022-09-15T07:37:32.844Z,64.64
2022-09-15T07:39:59.880Z,63.80
2022-09-15T07:42:26.834Z,64.04
2022-09-15T07:44:53.579Z,65.88
2022-09-15T07:47:20.244Z,64.92
2022-09-15T07:49:46.934Z,60.97
2022-09-15T07:52:14.069Z,60.15
2022-09-15T07:54:40.961Z,58.58
2022-09-15T07:57:07.585Z,58.37
2022-09-15T07:59:37.184Z,59.53
2022-09-15T08:02:06.092Z,60.38
2022-09-15T08:04:32.824Z,59.29
2022-09-15T08:06:59.534Z,56.69
2022-09-15T08:09:26.147Z,53.54
2022-09-15T08:11:52.698Z,53.25
2022-09-15T08:14:19.262Z,52.46
2022-09-15T08:16:45.919Z,53.54
2022-09-15T08:19:12.853Z,53.51
2022-09-15T08:21:40.013Z,52.80
2022-09-15T08:24:06.570Z,51.73
2022-09-15T08:26:33.104Z,50.61
2022-09-15T08:29:00.467Z,51.66
2022-09-15T08:31:27.214Z,50.41
2022-09-15T08:33:56.688Z,49.81
2022-09-15T08:36:27.275Z,47.20
2022-09-15T08:38:53.867Z,44.49
2022-09-15T08:41:46.255Z,44.33
2022-09-15T08:44:37.969Z,44.85
2022-09-15T08:47:15.818Z,44.92
2022-09-15T08:50:07.658Z,44.32
2022-09-15T08:52:40.057Z,43.08
2022-09-15T08:55:33.990Z,43.14
2022-09-15T08:58:00.685Z,43.65
2022-09-15T09:00:29.194Z,44.23
2022-09-15T09:03:04.831Z,43.47
2022-09-15T09:06:09.039Z,42.91
2022-09-15T09:08:55.672Z,41.65
2022-09-15T09:11:31.116Z,40.22
2022-09-15T09:14:16.357Z,39.98
2022-09-15T09:17:22.837Z,39.82
2022-09-15T09:20:34.639Z,39.81
2022-09-15T09:23:05.293Z,39.44
2022-09-15T09:25:32.128Z,38.78
2022-09-15T09:28:01.656Z,36.91
2022-09-15T09:30:32.794Z,38.08
2022-09-15T09:33:34.447Z,37.94
2022-09-15T09:36:03.265Z,37.47
2022-09-15T09:38:39.407Z,37.69
2022-09-15T09:41:18.098Z,38.04
2022-09-15T09:43:48.833Z,36.79
2022-09-15T09:46:20.781Z,36.53
2022-09-15T09:48:59.239Z,35.57
2022-09-15T09:51:38.350Z,34.14
2022-09-15T09:54:35.064Z,34.90
2022-09-15T09:57:14.491Z,34.99
2022-09-15T09:59:44.469Z,34.09
2022-09-15T10:02:11.156Z,35.14
2022-09-15T10:04:39.285Z,32.80
2022-09-15T10:07:17.888Z,33.27
2022-09-15T10:10:05.408Z,33.79
2022-09-15T10:12:40.943Z,33.75
2022-09-15T10:15:31.369Z,36.44
2022-09-15T10:17:58.154Z,39.08
2022-09-15T10:20:32.180Z,40.81
2022-09-15T10:23:18.495Z,40.02
2022-09-15T10:25:58.722Z,41.67
2022-09-15T10:28:27.922Z,42.08
2022-09-15T10:31:12.971Z,41.64
2022-09-15T10:33:45.822Z,40.60
2022-09-15T10:36:13.828Z,40.12
2022-09-15T10:38:49.605Z,41.92
2022-09-15T10:41:25.380Z,42.68
2022-09-15T10:44:04.327Z,43.68
2022-09-15T10:47:06.731Z,41.37
2022-09-15T10:50:00.380Z,41.91
2022-09-15T10:52:29.017Z,41.12
2022-09-15T10:55:51.201Z,41.48
2022-09-15T10:58:38.959Z,43.06
2022-09-15T11:01:26.055Z,44.70
2022-09-15T11:04:31.077Z,46.30
2022-09-15T11:07:16.686Z,46.72
2022-09-15T11:10:06.691Z,46.77
2022-09-15T11:12:45.574Z,45.99
2022-09-15T11:15:40.290Z,46.39
2022-09-15T11:18:28.366Z,46.80
2022-09-15T11:21:05.734Z,47.75
2022-09-15T11:24:10.735Z,47.57
2022-09-15T11:26:45.530Z,48.50
2022-09-15T11:29:22.944Z,49.08
2022-09-15T11:31:58.278Z,48.75
2022-09-15T11:34:33.144Z,49.46
2022-09-15T11:37:23.804Z,50.26
2022-09-15T11:39:57.559Z,49.15
2022-09-15T11:42:38.807Z,48.12
2022-09-15T11:45:17.079Z,47.39
2022-09-15T11:47:49.778Z,47.56
2022-09-15T11:50:30.015Z,47.94
2022-09-15T11:52:56.825Z,47.44
2022-09-15T11:55:37.768Z,47.83
2022-09-15T11:58:22.135Z,48.54
2022-09-15T12:01:18.795Z,49.33
2022-09-15T12:04:04.579Z,49.69
2022-09-15T12:07:01.352Z,49.20
2022-09-15T12:09:28.857Z,49.43
2022-09-15T12:12:07.178Z,49.41
2022-09-15T12:14:42.198Z,50.06
2022-09-15T12:17:18.759Z,49.85
2022-09-15T12:20:16.928Z,50.48
2022-09-15T12:23:08.123Z,50.01
2022-09-15T12:25:59.075Z,50.79
2022-09-15T12:28:37.782Z,51.21
2022-09-15T12:31:25.980Z,50.60
2022-09-15T12:33:59.965Z,50.99
2022-09-15T12:36:43.931Z,50.83
2022-09-15T12:39:32.064Z,49.98
2022-09-15T12:42:25.231Z,50.74
2022-09-15T12:44:54.117Z,50.15
2022-09-15T12:47:35.452Z,48.87
2022-09-15T12:50:14.100Z,48.60
2022-09-15T12:53:00.905Z,47.88
2022-09-15T12:55:36.263Z,49.23
2022-09-15T12:58:17.833Z,50.15
2022-09-15T13:01:07.136Z,51.24
2022-09-15T13:06:10.304Z,52.23
2022-09-15T13:08:37.344Z,52.35
2022-09-15T13:11:09.041Z,52.55
2022-09-15T13:13:43.291Z,52.80
2022-09-15T13:16:40.732Z,52.80
2022-09-15T13:19:30.345Z,51.40
2022-09-15T13:22:12.586Z,51.28
2022-09-15T13:25:03.229Z,52.01
2022-09-15T13:27:35.784Z,52.71
2022-09-15T13:30:22.061Z,52.87
2022-09-15T13:33:22.365Z,52.40
2022-09-15T13:35:51.803Z,52.68
2022-09-15T13:38:37.479Z,52.76
2022-09-15T13:41:32.409Z,53.78
2022-09-15T13:44:36.174Z,52.05
2022-09-15T13:47:18.945Z,51.21
2022-09-15T13:49:51.536Z,50.65
2022-09-15T13:52:18.014Z,51.55
2022-09-15T13:55:21.029Z,51.94
2022-09-15T14:00:51.174Z,53.05
2022-09-15T14:03:25.317Z,52.73
2022-09-15T14:05:54.037Z,52.31
2022-09-15T14:08:26.551Z,52.50
2022-09-15T14:11:01.462Z,52.77
2022-09-15T14:13:30.084Z,53.36
2022-09-15T14:16:10.427Z,53.88
2022-09-15T14:18:43.890Z,54.03
2022-09-15T14:21:17.525Z,54.27
2022-09-15T14:23:52.870Z,53.28
2022-09-15T14:26:30.213Z,52.62
2022-09-15T14:29:02.791Z,51.86
2022-09-15T14:31:38.556Z,51.84
2022-09-15T14:34:14.773Z,52.72
2022-09-15T14:36:41.708Z,54.05
2022-09-15T14:39:11.137Z,54.36
2022-09-15T14:41:39.637Z,54.53
2022-09-15T14:47:22.396Z,55.01
2022-09-15T14:49:49.267Z,54.66
2022-09-15T14:52:26.729Z,54.33
2022-09-15T14:55:07.558Z,54.12
2022-09-15T14:57:37.993Z,52.53
2022-09-15T15:00:18.651Z,51.26
2022-09-15T15:03:17.522Z,46.76
2022-09-15T15:06:02.332Z,41.79
2022-09-15T15:08:34.908Z,39.69
2022-09-15T15:11:02.026Z,38.82
2022-09-15T15:13:29.358Z,36.82
2022-09-15T15:15:56.170Z,36.50
2022-09-15T15:18:31.702Z,37.74
2022-09-15T15:20:59.817Z,38.79
2022-09-15T15:23:27.366Z,39.38
2022-09-15T15:26:43.249Z,41.93
2022-09-15T15:29:47.705Z,44.56
2022-09-15T15:32:17.346Z,44.72
2022-09-15T15:35:02.640Z,45.22
2022-09-15T15:37:31.711Z,47.88
2022-09-15T15:40:04.768Z,50.55
2022-09-15T15:42:31.794Z,52.42
2022-09-15T15:45:17.004Z,53.07
2022-09-15T15:47:43.634Z,54.53
2022-09-15T15:50:20.290Z,55.69
2022-09-15T15:52:48.734Z,56.53
2022-09-15T15:55:18.803Z,57.26
2022-09-15T15:57:52.796Z,57.91
2022-09-15T16:00:23.795Z,58.42
2022-09-15T16:02:51.734Z,59.05
2022-09-15T16:05:26.159Z,59.52
2022-09-15T16:07:56.547Z,58.73
2022-09-15T16:10:27.557Z,58.12
2022-09-15T16:12:54.365Z,59.24
2022-09-15T16:15:22.174Z,60.11
2022-09-15T16:17:49.345Z,60.88
2022-09-15T16:20:16.721Z,61.34
2022-09-15T16:22:43.671Z,61.53
2022-09-15T16:25:20.764Z,62.06
2022-09-15T16:27:47.636Z,62.57
2022-09-15T16:30:14.255Z,63.21
2022-09-15T16:32:40.848Z,63.43
2022-09-15T16:35:51.396Z,63.79
2022-09-15T16:38:19.808Z,64.26
2022-09-15T16:40:47.633Z,64.23
2022-09-15T16:43:19.057Z,64.58
2022-09-15T16:45:46.192Z,64.61
2022-09-15T16:48:13.215Z,64.80
2022-09-15T16:50:50.309Z,65.08
2022-09-15T16:53:30.532Z,65.59
2022-09-15T16:55:58.057Z,65.93
2022-09-15T16:58:27.697Z,65.95
2022-09-15T17:01:24.378Z,66.24
2022-09-15T17:03:51.434Z,66.68
2022-09-15T17:06:21.641Z,66.98
2022-09-15T17:08:48.846Z,67.23
2022-09-15T17:11:18.353Z,67.24
2022-09-15T17:13:46.335Z,67.44
2022-09-15T17:16:16.994Z,67.86
2022-09-15T17:18:43.682Z,68.01
2022-09-15T17:21:15.778Z,68.05
2022-09-15T17:23:47.974Z,68.62
2022-09-15T17:26:19.618Z,68.59
2022-09-15T17:28:47.067Z,68.95
2022-09-15T17:31:19.894Z,68.89
2022-09-15T17:33:48.626Z,69.20
2022-09-15T17:36:16.086Z,69.43
2022-09-15T17:38:44.903Z,69.58
2022-09-15T17:41:18.449Z,69.99
2022-09-15T17:43:46.754Z,69.85
2022-09-15T17:46:13.486Z,70.11
2022-09-15T17:48:40.261Z,70.21
2022-09-15T17:51:09.981Z,70.33
2022-09-15T17:53:36.624Z,70.73
2022-09-15T17:56:03.437Z,71.00
2022-09-15T17:58:32.001Z,71.14
2022-09-15T18:00:58.987Z,71.39
2022-09-15T18:03:34.102Z,71.66
2022-09-15T18:06:19.275Z,71.83
2022-09-15T18:08:58.759Z,72.18
2022-09-15T18:11:40.874Z,72.50
2022-09-15T18:14:26.216Z,73.03
2022-09-15T18:16:52.994Z,73.29
2022-09-15T18:19:39.876Z,73.41
2022-09-15T18:22:06.594Z,73.95
2022-09-15T18:24:41.998Z,73.96
2022-09-15T18:27:27.095Z,74.20
2022-09-15T18:29:59.930Z,74.54
2022-09-15T18:32:42.725Z,74.67
2022-09-15T18:35:28.385Z,74.77
2022-09-15T18:37:58.113Z,74.85
2022-09-15T18:40:48.829Z,75.04
2022-09-15T18:43:35.281Z,75.28
2022-09-15T18:46:02.343Z,75.12
2022-09-15T18:48:44.358Z,75.40
2022-09-15T18:51:50.440Z,75.57
2022-09-15T18:54:16.296Z,75.57
2022-09-15T18:56:45.837Z,75.77
2022-09-15T18:59:31.484Z,75.76
2022-09-15T19:01:58.373Z,75.94
2022-09-15T19:04:31.024Z,76.05
2022-09-15T19:06:59.075Z,76.27
2022-09-15T19:09:25.668Z,76.32
2022-09-15T19:11:52.284Z,76.15
2022-09-15T19:14:19.094Z,75.74
2022-09-15T19:16:57.657Z,75.26
2022-09-15T19:19:25.165Z,75.00
2022-09-15T19:21:52.019Z,74.97
2022-09-15T19:24:18.895Z,75.05
2022-09-15T19:26:47.244Z,74.87
2022-09-15T19:29:15.195Z,74.90
2022-09-15T19:31:42.332Z,74.15
2022-09-15T19:34:09.056Z,74.12
2022-09-15T19:36:35.974Z,74.08
2022-09-15T19:39:03.414Z,74.09
2022-09-15T19:41:30.473Z,73.92
2022-09-15T19:43:59.756Z,73.87
2022-09-15T19:46:26.607Z,73.55
2022-09-15T19:48:53.846Z,74.05
2022-09-15T19:51:21.623Z,73.66
2022-09-15T19:53:48.367Z,73.33
2022-09-15T19:56:22.007Z,73.45
2022-09-15T19:58:49.484Z,73.49
2022-09-15T20:01:17.710Z,73.29
2022-09-15T20:06:32.640Z,72.83
2022-09-15T20:09:00.136Z,72.66
2022-09-15T20:11:29.651Z,72.78
2022-09-15T20:13:57.369Z,72.49
2022-09-15T20:16:25.299Z,72.37
2022-09-15T20:18:54.270Z,72.11
2022-09-15T20:21:46.279Z,71.95
2022-09-15T20:24:15.247Z,71.79
2022-09-15T20:26:41.933Z,72.16
2022-09-15T20:29:10.369Z,72.19
2022-09-15T20:31:37.096Z,72.12
2022-09-15T20:34:03.761Z,72.39
2022-09-15T20:36:35.444Z,73.04
2022-09-15T20:39:06.019Z,73.03
2022-09-15T20:41:32.982Z,73.12
2022-09-15T20:43:59.976Z,73.52
2022-09-15T20:46:28.906Z,73.80
2022-09-15T20:48:55.538Z,74.20
2022-09-15T20:51:25.744Z,74.38
2022-09-15T20:53:54.342Z,74.72
2022-09-15T20:56:24.938Z,75.22
2022-09-15T20:58:56.435Z,75.26
2022-09-15T21:01:38.074Z,75.73
2022-09-15T21:04:08.722Z,76.31
2022-09-15T21:06:36.542Z,76.54
2022-09-15T21:09:04.214Z,76.62
2022-09-15T21:11:31.154Z,76.76
2022-09-15T21:13:58.377Z,77.28
2022-09-15T21:16:27.569Z,77.55
2022-09-15T21:18:58.054Z,77.83
2022-09-15T21:21:29.496Z,78.02
2022-09-15T21:24:00.564Z,78.49
2022-09-15T21:26:30.938Z,78.76
2022-09-15T21:28:57.905Z,79.18
2022-09-15T21:31:27.723Z,79.33
2022-09-15T21:33:55.401Z,79.70
2022-09-15T21:36:27.596Z,79.94
2022-09-15T21:38:56.419Z,80.20
2022-09-15T21:41:25.813Z,80.47
2022-09-15T21:43:54.966Z,80.81
2022-09-15T21:46:24.284Z,80.99
2022-09-15T21:48:51.235Z,81.25
2022-09-15T21:51:24.615Z,81.79
2022-09-15T21:53:56.161Z,81.99
2022-09-15T21:56:24.444Z,82.39
2022-09-15T21:58:51.376Z,82.92
2022-09-15T22:01:21.544Z,83.45
2022-09-15T22:04:00.725Z,83.92
2022-09-15T22:06:31.347Z,84.25
2022-09-15T22:08:59.614Z,84.43
2022-09-15T22:11:26.465Z,85.26
2022-09-15T22:13:53.377Z,86.99
2022-09-15T22:16:22.357Z,87.43
2022-09-15T22:18:49.944Z,87.71
2022-09-15T22:21:22.540Z,87.96
2022-09-15T22:23:50.623Z,88.09
2022-09-15T22:26:19.866Z,88.62
2022-09-15T22:28:46.691Z,88.86
2022-09-15T22:31:16.243Z,88.91
2022-09-15T22:33:43.144Z,89.26
2022-09-15T22:36:30.687Z,89.47
2022-09-15T22:39:06.332Z,90.29
2022-09-15T22:41:37.707Z,90.31
2022-09-15T22:44:06.488Z,90.19
2022-09-15T22:46:33.832Z,90.25
2022-09-15T22:49:00.418Z,90.67
2022-09-15T22:51:27.139Z,91.45
2022-09-15T22:53:56.149Z,91.24
2022-09-15T22:56:25.188Z,91.46
2022-09-15T22:58:51.923Z,91.38
2022-09-15T23:01:21.181Z,91.59
2022-09-15T23:03:55.699Z,91.53
2022-09-15T23:06:24.045Z,91.70
2022-09-15T23:08:52.893Z,92.01
2022-09-15T23:11:20.498Z,92.34
2022-09-15T23:13:47.590Z,92.49
2022-09-15T23:16:14.283Z,92.40
2022-09-15T23:18:41.218Z,93.32
2022-09-15T23:21:10.153Z,93.58
2022-09-15T23:23:38.867Z,93.55
2022-09-15T23:26:08.226Z,93.47
2022-09-15T23:28:35.878Z,93.36
2022-09-15T23:31:02.570Z,93.87
2022-09-15T23:33:31.596Z,93.74
2022-09-15T23:36:00.969Z,93.80
2022-09-15T23:38:27.868Z,93.85
2022-09-15T23:40:54.425Z,93.68
2022-09-15T23:43:21.711Z,93.52
2022-09-15T23:45:50.594Z,93.45
2022-09-15T23:48:17.347Z,93.73
2022-09-15T23:50:44.984Z,93.92
2022-09-15T23:53:12.806Z,94.17
2022-09-15T23:55:39.435Z,94.66
2022-09-15T23:58:06.161Z,94.63
